Time;durP1;ratioP1;P1;durP2;ratioP2;P2;SDS_P1;SDS_P2;PMS_P1;PMS_P2;Temp;Humidity;BMP_temperature;BMP_pressure;BME280_temperature;BME280_humidity;BME280_pressure;Samples;Min_cycle;Max_cycle;Signal;HPM_P1;HPM_P2
2021/05/03 00:02:09;;;;;;;0.70;0.68;;;22.30;46.00;;;;;;5110706;28;20453;-42
2021/05/03 00:04:36;;;;;;;0.90;0.80;;;22.30;46.00;;;;;;5110416;28;20062;-40
2021/05/03 00:07:03;;;;;;;0.90;0.60;;;22.30;46.00;;;;;;5110559;28;20058;-41
2021/05/03 00:09:30;;;;;;;1.00;0.60;;;22.30;46.00;;;;;;5111159;28;20047;-40
2021/05/03 00:11:56;;;;;;;1.05;0.73;;;22.30;46.00;;;;;;5109772;28;20040;-39
2021/05/03 00:14:23;;;;;;;0.85;0.68;;;22.30;46.00;;;;;;5110566;28;20061;-39
2021/05/03 00:16:50;;;;;;;0.65;0.63;;;22.30;46.00;;;;;;5110727;28;20043;-40
2021/05/03 00:19:17;;;;;;;0.77;0.70;;;22.30;46.00;;;;;;5111025;28;20043;-38
2021/05/03 00:21:44;;;;;;;0.70;0.70;;;22.30;46.00;;;;;;5110777;28;20052;-39
2021/05/03 00:24:11;;;;;;;0.60;0.57;;;22.30;46.00;;;;;;5110650;28;20056;-39
2021/05/03 00:26:38;;;;;;;0.47;0.40;;;22.30;46.00;;;;;;5110097;28;20120;-39
2021/05/03 00:29:04;;;;;;;0.75;0.60;;;22.30;46.00;;;;;;5110410;28;20054;-39
2021/05/03 00:31:31;;;;;;;1.00;0.80;;;22.30;46.00;;;;;;5109973;28;20052;-39
2021/05/03 00:33:58;;;;;;;0.75;0.55;;;22.20;45.90;;;;;;5100527;28;20046;-39
2021/05/03 00:36:24;;;;;;;0.95;0.75;;;22.30;46.00;;;;;;5110765;28;20040;-39
2021/05/03 00:38:51;;;;;;;0.68;0.50;;;22.30;46.00;;;;;;5109783;28;20050;-40
2021/05/03 00:41:18;;;;;;;0.60;0.50;;;22.30;46.00;;;;;;5110387;28;20051;-39
2021/05/03 00:43:44;;;;;;;1.00;0.80;;;22.30;46.00;;;;;;5110395;28;20039;-39
2021/05/03 00:46:11;;;;;;;0.90;0.50;;;22.20;45.90;;;;;;5111899;28;20056;-40
2021/05/03 00:48:38;;;;;;;1.10;0.73;;;22.30;46.00;;;;;;5114344;27;20082;-39
2021/05/03 00:51:05;;;;;;;1.08;0.68;;;22.30;46.00;;;;;;5113945;28;20047;-39
2021/05/03 00:53:31;;;;;;;0.90;0.68;;;22.30;46.00;;;;;;5112941;27;20047;-43
2021/05/03 00:55:58;;;;;;;0.80;0.60;;;22.30;46.00;;;;;;5103194;28;20494;-40
2021/05/03 00:58:25;;;;;;;0.90;0.75;;;22.20;45.90;;;;;;5114346;27;20778;-40
2021/05/03 01:00:51;;;;;;;0.68;0.55;;;22.30;46.00;;;;;;5113405;28;20407;-41
2021/05/03 01:03:18;;;;;;;1.38;0.80;;;22.30;46.00;;;;;;5113448;28;20507;-39
2021/05/03 01:05:44;;;;;;;0.88;0.60;;;22.20;45.90;;;;;;5113635;28;20047;-41
2021/05/03 01:08:11;;;;;;;0.80;0.70;;;22.30;46.00;;;;;;5112671;28;20088;-40
2021/05/03 01:10:38;;;;;;;0.68;0.63;;;22.30;46.00;;;;;;5113361;28;20051;-39
2021/05/03 01:13:04;;;;;;;0.85;0.65;;;22.30;46.00;;;;;;5113358;28;20055;-40
2021/05/03 01:15:31;;;;;;;0.68;0.60;;;22.20;45.90;;;;;;5112623;28;20047;-39
2021/05/03 01:18:00;;;;;;;0.52;0.50;;;22.30;46.00;;;;;;5113494;28;20399;-39
2021/05/03 01:20:33;;;;;;;0.90;0.70;;;22.30;46.00;;;;;;5112717;28;20043;-39
2021/05/03 01:23:01;;;;;;;1.33;0.82;;;22.30;46.00;;;;;;5103399;28;20118;-40
2021/05/03 01:25:31;;;;;;;0.90;0.80;;;22.20;45.90;;;;;;5113188;27;20051;-39
2021/05/03 01:27:59;;;;;;;0.73;0.68;;;22.30;46.00;;;;;;5112773;28;20130;-40
2021/05/03 01:30:34;;;;;;;0.70;0.50;;;22.30;46.00;;;;;;5113616;27;20052;-40
2021/05/03 01:33:02;;;;;;;0.65;0.50;;;22.20;45.90;;;;;;5112601;28;20071;-40
2021/05/03 01:35:29;;;;;;;0.85;0.65;;;22.20;45.90;;;;;;5112542;28;20047;-39
2021/05/03 01:37:58;;;;;;;0.65;0.63;;;22.20;45.90;;;;;;5112959;28;20043;-39
2021/05/03 01:40:27;;;;;;;1.20;0.73;;;22.30;46.00;;;;;;5113197;28;20044;-40
2021/05/03 01:42:55;;;;;;;0.60;0.50;;;22.20;45.90;;;;;;5113096;28;20408;-40
2021/05/03 01:45:26;;;;;;;0.80;0.70;;;22.30;46.00;;;;;;5113219;27;20411;-39
2021/05/03 01:47:54;;;;;;;0.40;0.40;;;22.20;45.90;;;;;;5111914;28;20423;-39
2021/05/03 01:50:22;;;;;;;0.88;0.55;;;22.20;45.90;;;;;;5111761;28;20047;-41
2021/05/03 01:52:51;;;;;;;0.50;0.50;;;22.20;45.90;;;;;;5112749;27;20063;-39
2021/05/03 01:55:19;;;;;;;0.82;0.70;;;22.20;45.90;;;;;;5112154;28;20043;-39
2021/05/03 01:57:46;;;;;;;1.25;0.70;;;22.20;45.90;;;;;;5112904;28;20044;-39
2021/05/03 02:00:14;;;;;;;1.25;0.60;;;22.20;45.90;;;;;;5112022;28;20040;-40
2021/05/03 02:02:48;;;;;;;0.65;0.57;;;22.30;46.00;;;;;;5113036;28;20071;-40
2021/05/03 02:05:20;;;;;;;0.88;0.80;;;22.20;45.90;;;;;;5112203;28;20129;-39
2021/05/03 02:08:04;;;;;;;0.60;0.55;;;22.20;45.90;;;;;;5110843;27;20051;-39
2021/05/03 02:10:32;;;;;;;0.80;0.70;;;22.30;46.00;;;;;;5112398;28;20051;-39
2021/05/03 02:13:00;;;;;;;0.82;0.70;;;22.30;46.00;;;;;;5112436;28;20387;-40
2021/05/03 02:15:29;;;;;;;1.02;0.75;;;22.20;45.90;;;;;;5111552;28;20051;-39
2021/05/03 02:17:56;;;;;;;0.90;0.77;;;22.20;45.90;;;;;;5112457;28;20100;-39
2021/05/03 02:20:22;;;;;;;0.60;0.60;;;22.20;45.90;;;;;;5111257;28;20048;-39
2021/05/03 02:22:49;;;;;;;0.88;0.63;;;22.30;46.00;;;;;;5112402;28;20096;-39
2021/05/03 02:25:16;;;;;;;0.70;0.70;;;22.20;45.90;;;;;;5111114;28;20051;-42
2021/05/03 02:27:47;;;;;;;1.17;0.70;;;22.20;45.90;;;;;;5101516;28;20422;-39
2021/05/03 02:30:16;;;;;;;0.40;0.40;;;22.20;45.90;;;;;;5111468;28;20556;-39
2021/05/03 02:32:45;;;;;;;0.68;0.57;;;22.20;45.90;;;;;;5110921;28;20104;-40
2021/05/03 02:35:20;;;;;;;0.60;0.55;;;22.20;45.90;;;;;;5110851;28;20043;-39
2021/05/03 02:37:55;;;;;;;0.68;0.60;;;22.20;45.90;;;;;;5111063;28;20035;-39
2021/05/03 02:40:24;;;;;;;0.82;0.68;;;22.20;45.90;;;;;;5111243;28;20047;-39
2021/05/03 02:42:55;;;;;;;0.47;0.47;;;22.20;45.90;;;;;;5111932;28;20444;-40
2021/05/03 02:45:24;;;;;;;0.65;0.65;;;22.20;45.90;;;;;;5101696;28;20096;-39
2021/05/03 02:47:52;;;;;;;1.15;0.70;;;22.20;45.90;;;;;;5110703;28;20056;-41
2021/05/03 02:50:21;;;;;;;0.70;0.60;;;22.20;45.90;;;;;;5111836;28;20539;-39
2021/05/03 02:52:49;;;;;;;0.70;0.70;;;22.20;45.90;;;;;;5111598;28;20088;-40
2021/05/03 02:55:16;;;;;;;1.10;0.80;;;22.20;45.90;;;;;;5111313;28;20047;-39
2021/05/03 02:57:44;;;;;;;0.70;0.57;;;22.20;45.90;;;;;;5101313;28;20074;-40
2021/05/03 03:00:31;;;;;;;0.63;0.60;;;22.20;45.90;;;;;;5110545;28;20411;-40
2021/05/03 03:02:59;;;;;;;0.88;0.80;;;22.20;45.90;;;;;;5110721;28;20051;-40
2021/05/03 03:05:27;;;;;;;0.75;0.57;;;22.20;45.90;;;;;;5111414;27;20059;-41
2021/05/03 03:07:54;;;;;;;0.80;0.55;;;22.20;45.90;;;;;;5099702;28;20115;-39
2021/05/03 03:10:21;;;;;;;0.50;0.40;;;22.20;45.90;;;;;;5110510;28;20051;-40
2021/05/03 03:12:49;;;;;;;0.85;0.60;;;22.20;45.90;;;;;;5110799;27;20036;-39
2021/05/03 03:15:19;;;;;;;1.48;0.70;;;22.20;45.90;;;;;;5110885;28;20048;-39
2021/05/03 03:17:52;;;;;;;0.50;0.50;;;22.20;45.90;;;;;;5111566;28;20044;-42
2021/05/03 03:20:20;;;;;;;0.52;0.50;;;22.20;45.90;;;;;;5111227;28;20050;-39
2021/05/03 03:22:48;;;;;;;0.68;0.50;;;22.20;45.90;;;;;;5110785;28;20059;-39
2021/05/03 03:25:16;;;;;;;0.90;0.70;;;22.20;45.90;;;;;;5101379;28;20047;-40
2021/05/03 03:27:43;;;;;;;0.73;0.60;;;22.20;45.90;;;;;;5109340;28;20047;-40
2021/05/03 03:30:11;;;;;;;0.90;0.70;;;22.20;45.90;;;;;;5110649;28;20100;-40
2021/05/03 03:32:44;;;;;;;0.60;0.50;;;22.20;45.90;;;;;;5111698;28;20395;-40
2021/05/03 03:35:14;;;;;;;0.88;0.60;;;22.20;45.90;;;;;;5110637;28;20052;-40
2021/05/03 03:37:42;;;;;;;0.65;0.50;;;22.20;45.90;;;;;;5111490;28;20043;-39
2021/05/03 03:40:10;;;;;;;0.90;0.70;;;22.20;45.90;;;;;;5110075;28;20057;-41
2021/05/03 03:42:37;;;;;;;0.55;0.50;;;22.20;45.90;;;;;;5110578;28;20515;-39
2021/05/03 03:45:06;;;;;;;1.20;0.68;;;22.20;46.50;;;;;;5111366;28;20046;-40
2021/05/03 03:47:33;;;;;;;0.88;0.68;;;22.20;45.90;;;;;;5111080;28;20131;-39
2021/05/03 03:50:01;;;;;;;0.85;0.65;;;22.20;45.90;;;;;;5111039;28;20636;-39
2021/05/03 03:52:28;;;;;;;0.50;0.50;;;22.20;45.90;;;;;;5111424;28;20050;-39
2021/05/03 03:54:54;;;;;;;0.80;0.60;;;22.20;45.90;;;;;;5110736;28;20039;-41
2021/05/03 03:57:21;;;;;;;0.60;0.60;;;22.20;45.90;;;;;;5110413;28;20058;-41
2021/05/03 03:59:52;;;;;;;0.55;0.52;;;22.20;45.90;;;;;;5110603;28;20510;-39
2021/05/03 04:02:19;;;;;;;0.68;0.52;;;22.20;45.90;;;;;;5110077;28;20055;-39
2021/05/03 04:04:59;;;;;;;0.70;0.60;;;22.20;45.90;;;;;;5109813;28;20097;-38
2021/05/03 04:12:41;;;;;;;1.00;0.70;;;22.20;45.90;;;;;;5110205;28;20036;-40
2021/05/03 04:26:13;;;;;;;0.52;0.50;;;22.20;45.90;;;;;;5113513;28;20058;-41
2021/05/03 04:28:46;;;;;;;0.40;0.40;;;22.20;45.90;;;;;;5104234;28;20392;-41
2021/05/03 04:31:13;;;;;;;0.77;0.60;;;22.20;45.90;;;;;;5113807;28;20491;-41
2021/05/03 04:33:40;;;;;;;0.80;0.70;;;22.20;45.90;;;;;;5113959;28;20089;-40
2021/05/03 04:36:08;;;;;;;0.65;0.60;;;22.20;45.90;;;;;;5113772;27;20044;-39
2021/05/03 04:38:35;;;;;;;0.73;0.60;;;22.20;45.90;;;;;;5114652;28;20043;-40
2021/05/03 04:41:02;;;;;;;1.33;0.70;;;22.20;45.90;;;;;;5114624;28;20059;-41
2021/05/03 04:43:29;;;;;;;0.82;0.60;;;22.20;45.90;;;;;;5114127;27;20453;-40
2021/05/03 04:45:56;;;;;;;0.80;0.68;;;22.20;45.80;;;;;;5105325;28;20116;-41
2021/05/03 04:48:23;;;;;;;0.80;0.57;;;22.20;45.90;;;;;;5112661;28;20066;-40
2021/05/03 04:50:49;;;;;;;0.90;0.68;;;22.20;45.80;;;;;;5113635;28;20100;-41
2021/05/03 04:53:16;;;;;;;0.52;0.50;;;22.20;45.90;;;;;;5113635;28;20613;-40
2021/05/03 04:55:43;;;;;;;0.60;0.50;;;22.20;45.80;;;;;;5112888;28;20048;-40
2021/05/03 04:58:09;;;;;;;0.85;0.70;;;22.20;45.80;;;;;;5113453;28;20052;-40
2021/05/03 05:00:36;;;;;;;0.68;0.65;;;22.20;45.80;;;;;;5112675;28;20396;-41
2021/05/03 05:03:03;;;;;;;0.75;0.60;;;22.20;45.80;;;;;;5114058;28;20050;-40
2021/05/03 05:05:30;;;;;;;1.13;0.77;;;22.20;45.80;;;;;;5113574;28;20491;-40
2021/05/03 05:07:57;;;;;;;0.70;0.57;;;22.20;45.80;;;;;;5112866;28;20074;-40
2021/05/03 05:10:24;;;;;;;1.00;0.70;;;22.20;45.80;;;;;;5112769;28;20057;-39
2021/05/03 05:12:50;;;;;;;0.57;0.57;;;22.30;45.90;;;;;;5113272;28;20376;-39
2021/05/03 05:15:18;;;;;;;0.95;0.68;;;22.20;45.80;;;;;;5112404;28;20491;-42
2021/05/03 05:17:48;;;;;;;0.77;0.60;;;22.20;45.70;;;;;;5113449;28;20498;-40
2021/05/03 05:20:16;;;;;;;0.75;0.70;;;22.30;45.80;;;;;;5113163;28;20047;-42
2021/05/03 05:22:43;;;;;;;0.52;0.52;;;22.20;45.70;;;;;;5112295;28;20491;-43
2021/05/03 05:25:11;;;;;;;0.68;0.50;;;22.20;45.70;;;;;;5112749;28;20450;-43
2021/05/03 05:27:39;;;;;;;1.80;0.70;;;22.20;45.70;;;;;;5112433;28;20403;-41
2021/05/03 05:30:07;;;;;;;0.80;0.73;;;22.20;45.70;;;;;;5113135;28;20040;-42
2021/05/03 05:32:34;;;;;;;1.38;0.85;;;22.30;45.80;;;;;;5112251;28;20044;-40
2021/05/03 05:35:02;;;;;;;0.70;0.60;;;22.30;45.80;;;;;;5113934;28;20543;-41
2021/05/03 05:37:29;;;;;;;0.60;0.50;;;22.30;45.80;;;;;;5113097;28;20473;-41
2021/05/03 05:39:55;;;;;;;0.95;0.73;;;22.30;45.70;;;;;;5112703;28;20051;-44
2021/05/03 05:42:22;;;;;;;0.77;0.70;;;22.30;45.70;;;;;;5112856;27;20054;-41
2021/05/03 05:44:49;;;;;;;0.73;0.60;;;22.30;45.70;;;;;;5112895;28;20135;-41
2021/05/03 05:47:16;;;;;;;0.88;0.80;;;22.30;45.70;;;;;;5102709;28;20054;-40
2021/05/03 05:49:43;;;;;;;0.60;0.60;;;22.30;45.70;;;;;;5112658;28;20047;-40
2021/05/03 05:52:10;;;;;;;0.90;0.80;;;22.30;45.70;;;;;;5112232;28;20040;-42
2021/05/03 05:54:37;;;;;;;0.52;0.52;;;22.30;45.70;;;;;;5101870;28;20059;-41
2021/05/03 05:57:04;;;;;;;0.93;0.77;;;22.30;45.70;;;;;;5113046;28;20476;-40
2021/05/03 05:59:31;;;;;;;0.50;0.50;;;22.30;45.70;;;;;;5112952;28;20062;-40
2021/05/03 06:01:58;;;;;;;1.00;0.55;;;22.30;45.70;;;;;;5112325;28;20044;-40
2021/05/03 06:04:27;;;;;;;0.70;0.60;;;22.30;45.70;;;;;;5112219;28;20047;-40
2021/05/03 06:06:54;;;;;;;0.68;0.65;;;22.30;45.70;;;;;;5112293;28;20461;-40
2021/05/03 06:09:20;;;;;;;0.80;0.70;;;22.30;45.70;;;;;;5102350;28;20471;-40
2021/05/03 06:11:47;;;;;;;1.00;0.60;;;22.30;45.70;;;;;;5101481;28;20044;-39
2021/05/03 06:14:14;;;;;;;0.75;0.65;;;22.30;45.70;;;;;;5112072;28;20043;-41
2021/05/03 06:16:40;;;;;;;0.90;0.60;;;22.30;45.70;;;;;;5085129;28;20051;-40
2021/05/03 06:19:07;;;;;;;0.60;0.60;;;22.30;45.70;;;;;;5102445;27;20047;-40
2021/05/03 06:21:34;;;;;;;1.08;0.82;;;22.30;45.70;;;;;;5112335;28;20054;-40
2021/05/03 06:24:00;;;;;;;0.95;0.57;;;22.30;45.70;;;;;;5102039;28;20117;-41
2021/05/03 06:26:27;;;;;;;1.02;0.75;;;22.30;45.70;;;;;;5111638;28;20460;-40
2021/05/03 06:28:58;;;;;;;0.63;0.52;;;22.30;45.70;;;;;;5111538;28;20051;-42
2021/05/03 06:31:25;;;;;;;0.65;0.50;;;22.30;45.70;;;;;;5112078;28;20506;-46
2021/05/03 06:33:51;;;;;;;0.68;0.50;;;22.30;45.70;;;;;;5110824;28;20044;-40
2021/05/03 06:36:18;;;;;;;0.88;0.68;;;22.30;45.70;;;;;;5111777;28;20126;-40
2021/05/03 06:38:45;;;;;;;0.57;0.57;;;22.30;45.70;;;;;;5111452;28;20063;-40
2021/05/03 06:41:12;;;;;;;0.85;0.70;;;22.30;45.70;;;;;;5111070;28;20051;-46
2021/05/03 06:43:38;;;;;;;0.65;0.65;;;22.30;45.70;;;;;;5110358;28;20487;-41
2021/05/03 06:46:05;;;;;;;0.55;0.55;;;22.30;45.70;;;;;;5111368;28;20112;-39
2021/05/03 06:48:32;;;;;;;0.70;0.60;;;22.30;45.70;;;;;;5111270;28;20100;-40
2021/05/03 06:50:58;;;;;;;0.90;0.73;;;22.30;45.70;;;;;;5111670;28;20055;-42
2021/05/03 06:53:25;;;;;;;1.10;0.80;;;22.30;45.70;;;;;;5111452;27;20522;-43
2021/05/03 06:55:52;;;;;;;0.60;0.50;;;22.30;45.70;;;;;;5111422;27;20058;-40
2021/05/03 06:58:19;;;;;;;0.95;0.75;;;22.30;45.70;;;;;;5111124;28;20513;-41
2021/05/03 07:00:46;;;;;;;0.77;0.60;;;22.30;45.70;;;;;;5111095;28;20452;-41
2021/05/03 07:03:13;;;;;;;0.80;0.70;;;22.30;45.70;;;;;;5101273;28;20050;-42
2021/05/03 07:05:40;;;;;;;0.50;0.50;;;22.30;45.60;;;;;;5111079;28;20051;-44
2021/05/03 07:08:11;;;;;;;0.60;0.60;;;22.30;45.60;;;;;;5109670;28;20736;-41
2021/05/03 07:10:44;;;;;;;0.63;0.63;;;22.30;45.60;;;;;;5110336;28;20047;-43
2021/05/03 07:13:11;;;;;;;0.90;0.70;;;22.30;45.60;;;;;;5110754;28;20427;-40
2021/05/03 07:15:37;;;;;;;0.70;0.63;;;22.30;45.60;;;;;;5110314;28;20051;-40
2021/05/03 07:18:05;;;;;;;0.63;0.57;;;22.30;45.60;;;;;;5111430;28;20039;-43
2021/05/03 07:20:32;;;;;;;0.88;0.60;;;22.30;45.50;;;;;;5110092;28;20058;-40
2021/05/03 07:22:59;;;;;;;0.77;0.60;;;22.30;45.50;;;;;;5111154;28;20104;-40
2021/05/03 07:25:25;;;;;;;1.73;0.63;;;22.30;45.50;;;;;;5110545;28;20055;-41
2021/05/03 07:27:52;;;;;;;0.60;0.50;;;22.30;45.50;;;;;;5111158;28;20049;-42
2021/05/03 07:30:19;;;;;;;0.77;0.73;;;22.30;45.50;;;;;;5101110;28;20043;-40
2021/05/03 07:32:45;;;;;;;0.50;0.50;;;22.30;45.50;;;;;;5110518;28;20054;-40
2021/05/03 07:35:13;;;;;;;0.80;0.65;;;22.30;45.50;;;;;;5110223;28;20050;-40
2021/05/03 07:37:41;;;;;;;1.02;0.80;;;22.30;45.50;;;;;;5110546;28;20051;-40
2021/05/03 07:40:09;;;;;;;0.70;0.70;;;22.30;45.50;;;;;;5110317;28;20510;-40
2021/05/03 07:42:36;;;;;;;0.70;0.60;;;22.30;45.50;;;;;;5111194;28;20055;-46
2021/05/03 07:45:10;;;;;;;0.63;0.55;;;22.30;45.50;;;;;;5110263;28;20078;-40
2021/05/03 07:47:37;;;;;;;0.75;0.63;;;22.30;45.50;;;;;;5110377;28;20055;-40
2021/05/03 07:50:05;;;;;;;0.40;0.40;;;22.30;45.50;;;;;;5110778;28;20048;-40
2021/05/03 07:52:32;;;;;;;0.50;0.50;;;22.30;45.50;;;;;;5110002;28;20055;-40
2021/05/03 07:54:59;;;;;;;1.10;0.60;;;22.30;45.50;;;;;;5113453;28;20096;-40
2021/05/03 07:57:27;;;;;;;0.80;0.60;;;22.30;45.50;;;;;;5114857;28;20048;-40
2021/05/03 07:59:54;;;;;;;0.73;0.60;;;22.30;45.50;;;;;;5114204;28;20431;-40
2021/05/03 08:02:21;;;;;;;0.77;0.60;;;22.30;45.50;;;;;;5115069;27;20043;-41
2021/05/03 08:04:52;;;;;;;1.00;0.73;;;22.30;45.40;;;;;;5114982;28;20043;-40
2021/05/03 08:07:20;;;;;;;1.02;0.80;;;22.30;45.40;;;;;;5113365;28;20039;-42
2021/05/03 08:09:46;;;;;;;0.80;0.60;;;22.30;45.40;;;;;;5114487;28;20130;-40
2021/05/03 08:12:13;;;;;;;0.73;0.65;;;22.30;45.40;;;;;;5114106;28;20036;-42
2021/05/03 08:14:43;;;;;;;0.98;0.77;;;22.30;45.40;;;;;;5114089;28;20104;-40
2021/05/03 08:17:13;;;;;;;0.80;0.60;;;22.30;45.40;;;;;;5114762;28;20066;-40
2021/05/03 08:19:41;;;;;;;0.57;0.57;;;22.30;45.40;;;;;;5114642;28;20411;-42
2021/05/03 08:22:08;;;;;;;0.70;0.63;;;22.40;45.50;;;;;;5113527;28;20101;-42
2021/05/03 08:24:36;;;;;;;0.60;0.60;;;22.30;45.40;;;;;;5114630;28;20047;-42
2021/05/03 08:27:05;;;;;;;0.60;0.60;;;22.30;45.30;;;;;;5113530;28;20119;-42
2021/05/03 08:29:32;;;;;;;1.00;0.65;;;22.30;45.40;;;;;;5113497;28;20410;-41
2021/05/03 08:32:00;;;;;;;0.90;0.80;;;22.30;45.40;;;;;;5113954;28;20092;-42
2021/05/03 08:34:27;;;;;;;0.50;0.50;;;22.30;45.40;;;;;;5114053;28;20047;-41
2021/05/03 08:36:56;;;;;;;0.65;0.63;;;22.30;45.40;;;;;;5113811;28;20441;-41
2021/05/03 08:39:24;;;;;;;0.68;0.63;;;22.30;45.40;;;;;;5112859;28;20043;-39
2021/05/03 08:41:56;;;;;;;0.52;0.47;;;22.30;45.40;;;;;;5114616;28;20108;-39
2021/05/03 08:44:26;;;;;;;0.52;0.50;;;22.30;45.40;;;;;;5114184;28;20055;-41
2021/05/03 08:46:55;;;;;;;0.60;0.60;;;22.30;45.40;;;;;;5103230;28;20129;-44
2021/05/03 08:54:36;;;;;;;0.63;0.60;;;22.30;45.40;;;;;;5112728;28;20405;-42
2021/05/03 08:57:04;;;;;;;0.88;0.80;;;22.30;45.40;;;;;;5114174;28;20052;-41
2021/05/03 08:59:35;;;;;;;0.57;0.50;;;22.30;45.40;;;;;;5113191;28;20047;-41
2021/05/03 09:02:13;;;;;;;0.70;0.70;;;22.30;45.40;;;;;;5112976;28;20096;-40
2021/05/03 09:04:42;;;;;;;0.93;0.70;;;22.30;45.40;;;;;;5113998;28;20131;-40
2021/05/03 09:07:13;;;;;;;0.80;0.65;;;22.30;45.40;;;;;;5110961;28;20067;-41
2021/05/03 09:09:46;;;;;;;0.88;0.70;;;22.30;45.40;;;;;;5103202;28;20050;-41
2021/05/03 09:12:15;;;;;;;0.75;0.57;;;22.30;45.40;;;;;;5112327;28;20051;-42
2021/05/03 09:14:55;;;;;;;0.70;0.63;;;22.30;45.40;;;;;;5112592;28;20051;-42
2021/05/03 09:17:38;;;;;;;1.00;0.70;;;22.40;45.40;;;;;;5113404;28;20043;-41
2021/05/03 09:20:16;;;;;;;1.83;0.77;;;22.40;45.40;;;;;;5113456;28;20043;-44
2021/05/03 09:22:54;;;;;;;0.80;0.52;;;22.30;45.30;;;;;;5113288;28;20101;-40
2021/05/03 09:25:25;;;;;;;0.80;0.77;;;22.30;45.40;;;;;;5113014;28;20546;-40
2021/05/03 09:28:01;;;;;;;1.55;0.80;;;22.30;45.40;;;;;;5113065;27;20104;-40
2021/05/03 09:30:37;;;;;;;0.70;0.60;;;22.40;45.50;;;;;;5112448;28;20062;-40
2021/05/03 09:33:31;;;;;;;1.02;0.85;;;22.30;45.40;;;;;;5112946;28;20491;-40
2021/05/03 09:35:59;;;;;;;;;;;22.30;45.30;;;;;;5112749;28;20035;-41
2021/05/03 09:38:49;;;;;;;1.02;0.70;;;22.40;45.40;;;;;;5113098;28;19924;-41
2021/05/03 09:41:24;;;;;;;0.85;0.70;;;22.30;45.40;;;;;;5113084;28;20063;-42
2021/05/03 09:44:04;;;;;;;0.80;0.80;;;22.30;45.40;;;;;;5113195;28;20107;-43
2021/05/03 09:46:39;;;;;;;0.60;0.60;;;22.30;45.40;;;;;;5113049;28;20048;-42
2021/05/03 09:49:12;;;;;;;0.57;0.47;;;22.30;45.40;;;;;;5112676;28;20054;-40
2021/05/03 09:51:42;;;;;;;1.15;0.60;;;22.30;45.40;;;;;;5112593;28;20406;-40
2021/05/03 09:54:13;;;;;;;0.90;0.77;;;22.30;45.40;;;;;;5112290;28;20055;-40
2021/05/03 09:57:10;;;;;;;0.63;0.63;;;22.30;45.30;;;;;;5112283;28;20127;-44
2021/05/03 09:59:42;;;;;;;1.00;0.70;;;22.30;45.30;;;;;;5112178;28;20055;-39
2021/05/03 10:02:33;;;;;;;0.50;0.50;;;22.30;45.30;;;;;;5111860;28;20047;-40
2021/05/03 10:07:36;;;;;;;0.53;0.50;;;22.30;45.30;;;;;;5110755;28;20044;-42
2021/05/03 10:10:18;;;;;;;0.45;0.43;;;22.40;45.40;;;;;;5111476;28;20290;-39
2021/05/03 10:12:45;;;;;;;0.70;0.60;;;22.40;45.40;;;;;;5112554;28;20055;-42
2021/05/03 10:15:15;;;;;;;0.73;0.68;;;22.30;45.30;;;;;;5111144;27;20058;-42
2021/05/03 10:17:44;;;;;;;0.82;0.70;;;22.30;45.30;;;;;;5111177;28;20461;-40
2021/05/03 10:20:13;;;;;;;0.80;0.70;;;22.30;45.30;;;;;;5112705;27;20044;-42
2021/05/03 10:22:40;;;;;;;0.90;0.55;;;22.40;45.40;;;;;;5111434;28;20097;-40
2021/05/03 10:25:11;;;;;;;0.77;0.60;;;22.30;45.30;;;;;;5111862;27;20059;-39
2021/05/03 10:27:41;;;;;;;0.70;0.65;;;22.40;45.50;;;;;;5111523;28;20650;-40
2021/05/03 10:30:09;;;;;;;0.50;0.47;;;22.30;45.30;;;;;;5111054;28;20697;-44
2021/05/03 10:32:37;;;;;;;0.40;0.38;;;22.30;45.30;;;;;;5111905;28;20054;-41
2021/05/03 10:35:07;;;;;;;1.00;0.80;;;22.30;45.30;;;;;;5101574;28;20499;-40
2021/05/03 10:37:43;;;;;;;0.60;0.60;;;22.30;45.90;;;;;;5111043;28;20043;-41
2021/05/03 10:40:13;;;;;;;0.63;0.63;;;22.30;45.30;;;;;;5112031;28;20449;-40
2021/05/03 10:43:07;;;;;;;0.60;0.57;;;22.30;45.40;;;;;;5111116;28;20100;-42
2021/05/03 10:48:53;;;;;;;0.88;0.70;;;22.30;45.40;;;;;;5111372;28;19942;-40
2021/05/03 10:51:31;;;;;;;0.52;0.50;;;22.30;45.30;;;;;;5111881;27;20113;-40
2021/05/03 10:54:37;;;;;;;1.38;0.63;;;22.30;45.40;;;;;;5111871;28;20491;-39
2021/05/03 10:57:09;;;;;;;1.25;0.60;;;22.30;45.40;;;;;;5109019;28;20040;-41
2021/05/03 10:59:48;;;;;;;0.50;0.50;;;22.30;45.40;;;;;;5111519;28;20048;-40
2021/05/03 11:02:19;;;;;;;0.70;0.63;;;22.30;45.40;;;;;;5111039;28;20050;-40
2021/05/03 11:05:14;;;;;;;0.60;0.60;;;22.30;45.40;;;;;;5111637;28;20116;-42
2021/05/03 11:08:05;;;;;;;0.60;0.60;;;22.30;45.40;;;;;;5111110;28;20043;-40
2021/05/03 11:11:06;;;;;;;0.68;0.65;;;22.30;45.40;;;;;;5110433;28;20051;-39
2021/05/03 11:13:56;;;;;;;0.73;0.50;;;22.30;46.00;;;;;;5101313;28;20130;-40
2021/05/03 11:16:26;;;;;;;0.60;0.60;;;22.30;45.40;;;;;;5110379;27;20043;-39
2021/05/03 11:18:55;;;;;;;0.70;0.60;;;22.30;45.40;;;;;;5110961;27;20135;-42
2021/05/03 11:21:43;;;;;;;0.70;0.70;;;22.30;45.40;;;;;;5110386;28;20044;-40
2021/05/03 11:27:13;;;;;;;0.40;0.40;;;22.30;45.40;;;;;;5110469;28;20059;-40
2021/05/03 11:32:11;;;;;;;0.50;0.50;;;22.30;45.40;;;;;;5100540;28;20048;-40
2021/05/03 11:40:47;;;;;;;0.68;0.68;;;22.30;45.40;;;;;;5058147;28;20139;-40
2021/05/03 11:46:32;;;;;;;0.80;0.70;;;22.30;45.50;;;;;;5058218;28;20416;-40
2021/05/03 11:49:24;;;;;;;0.95;0.60;;;22.30;45.50;;;;;;5057816;28;20049;-41
2021/05/03 11:51:55;;;;;;;0.88;0.80;;;22.30;45.50;;;;;;5057925;28;20041;-40
2021/05/03 11:54:28;;;;;;;0.85;0.60;;;22.30;45.50;;;;;;5058109;28;20231;-39
2021/05/03 11:56:57;;;;;;;0.47;0.47;;;22.30;45.50;;;;;;5058305;28;20483;-42
2021/05/03 11:59:24;;;;;;;0.50;0.50;;;22.30;45.50;;;;;;5041218;28;20044;-40
2021/05/03 12:02:08;;;;;;;0.68;0.60;;;22.30;45.50;;;;;;5058084;28;20037;-44
2021/05/03 12:04:46;;;;;;;0.80;0.70;;;22.30;45.50;;;;;;5057471;28;20052;-41
2021/05/03 12:07:22;;;;;;;0.55;0.55;;;22.30;45.50;;;;;;5055883;28;20055;-39
2021/05/03 12:10:03;;;;;;;0.80;0.70;;;22.30;45.50;;;;;;5057684;28;20044;-39
2021/05/03 12:12:54;;;;;;;0.82;0.65;;;22.30;45.50;;;;;;5047642;28;20094;-42
2021/05/03 12:15:22;;;;;;;0.70;0.65;;;22.30;45.50;;;;;;5110200;28;20040;-41
2021/05/03 12:17:49;;;;;;;1.08;0.55;;;22.30;45.50;;;;;;5110334;28;20044;-39
2021/05/03 12:20:24;;;;;;;0.60;0.60;;;22.30;45.50;;;;;;5110807;28;20080;-40
2021/05/03 12:23:07;;;;;;;0.75;0.60;;;22.30;45.50;;;;;;5110779;28;20051;-41
2021/05/03 12:25:54;;;;;;;1.00;0.80;;;22.30;45.50;;;;;;5110772;28;20109;-39
2021/05/03 12:28:24;;;;;;;0.50;0.50;;;22.30;45.40;;;;;;5110467;28;20483;-40
2021/05/03 12:30:59;;;;;;;0.90;0.60;;;22.30;45.40;;;;;;5110785;28;20465;-40
2021/05/03 12:33:27;;;;;;;0.70;0.70;;;22.30;45.40;;;;;;5101350;28;20047;-39
2021/05/03 12:35:55;;;;;;;0.80;0.63;;;22.30;45.40;;;;;;5109872;28;20043;-40
2021/05/03 12:38:30;;;;;;;0.65;0.65;;;22.30;45.40;;;;;;5109740;28;20499;-41
2021/05/03 12:41:01;;;;;;;0.60;0.50;;;22.40;45.40;;;;;;5112504;28;20052;-40
2021/05/03 12:43:33;;;;;;;0.75;0.60;;;22.30;45.30;;;;;;5112825;28;20051;-40
2021/05/03 12:46:07;;;;;;;0.50;0.50;;;22.40;45.40;;;;;;5114343;27;20124;-40
2021/05/03 12:48:52;;;;;;;0.73;0.57;;;22.40;45.50;;;;;;5113622;28;20514;-40
2021/05/03 12:54:19;;;;;;;1.05;0.50;;;22.40;45.50;;;;;;5114446;27;20039;-40
2021/05/03 12:57:09;;;;;;;0.77;0.60;;;22.40;45.40;;;;;;5113040;28;20039;-40
2021/05/03 13:05:16;;;;;;;0.50;0.50;;;22.30;45.30;;;;;;5113223;28;20483;-40
2021/05/03 13:24:26;;;;;;;1.35;0.47;;;22.40;45.40;;;;;;5101379;28;20055;-40
2021/05/03 13:29:40;;;;;;;0.85;0.70;;;22.40;45.40;;;;;;5102657;28;20063;-40
2021/05/03 13:32:09;;;;;;;0.77;0.60;;;22.40;45.40;;;;;;5102870;28;20534;-39
2021/05/03 13:34:36;;;;;;;1.25;0.73;;;22.40;45.40;;;;;;5103243;28;20047;-40
2021/05/03 13:37:03;;;;;;;0.60;0.60;;;22.40;45.50;;;;;;5101020;28;20055;-40
2021/05/03 13:39:30;;;;;;;0.50;0.50;;;22.40;45.40;;;;;;5103358;28;20050;-40
2021/05/03 13:41:57;;;;;;;0.73;0.60;;;22.40;45.40;;;;;;5102576;28;20047;-39
2021/05/03 13:44:24;;;;;;;0.70;0.55;;;22.40;45.40;;;;;;5102866;28;20458;-41
2021/05/03 13:46:51;;;;;;;0.50;0.50;;;22.40;45.30;;;;;;5102962;28;20066;-41
2021/05/03 13:49:18;;;;;;;1.00;0.70;;;22.40;45.40;;;;;;5103510;28;20410;-40
2021/05/03 13:51:46;;;;;;;0.88;0.65;;;22.40;45.90;;;;;;5102584;28;20104;-39
2021/05/03 13:54:13;;;;;;;0.70;0.70;;;22.40;45.30;;;;;;5101857;28;20051;-42
2021/05/03 13:56:40;;;;;;;0.98;0.68;;;22.40;45.30;;;;;;5101974;28;20043;-40
2021/05/03 13:59:06;;;;;;;0.60;0.60;;;22.40;45.30;;;;;;5100922;28;20072;-39
2021/05/03 14:01:33;;;;;;;1.02;0.70;;;22.40;45.30;;;;;;5101971;28;20047;-41
2021/05/03 14:04:00;;;;;;;0.60;0.60;;;22.40;45.30;;;;;;5101502;28;20047;-40
2021/05/03 14:06:27;;;;;;;0.80;0.60;;;22.40;45.30;;;;;;5102427;28;20072;-40
2021/05/03 14:08:54;;;;;;;0.80;0.70;;;22.40;45.30;;;;;;5100802;28;20069;-40
2021/05/03 14:11:22;;;;;;;0.60;0.50;;;22.40;45.30;;;;;;5102234;28;20039;-44
2021/05/03 14:13:48;;;;;;;0.60;0.50;;;22.40;45.30;;;;;;5106485;28;20052;-40